Flight Track Log - Related Links

Times and Time Zones

All times are in EDT time to prevent confusion due to time zone crossing. See the N182Q flight status page for this flight to view local times or setup timezone preferences in your user account.


Time Position Orientation Groundspeed Altitude Reporting Facility
EDT Latitude Longitude Course Direction KTS MPH feet Rate Location/Type
Mon 10:27:32 AM -19.5366 -159.4605 50° Northeast  Level Estimated
Mon 10:28:32 AM 35.8970 -88.9514 322° Northwest  Level FlightAware Approximate
Mon 10:29:32 AM 35.9211 -88.9750 322° Northwest  Level FlightAware Approximate
Mon 10:30:32 AM 35.9455 -88.9982 322° Northwest  Level FlightAware Approximate
Mon 10:31:32 AM 35.9699 -89.0214 322° Northwest  Level FlightAware Approximate
Mon 10:32:32 AM 35.9943 -89.0446 322° Northwest  Level FlightAware Approximate
Mon 10:33:32 AM 36.0186 -89.0678 322° Northwest  Level FlightAware Approximate
Mon 10:34:32 AM 36.0430 -89.0911 322° Northwest  Level FlightAware Approximate
Mon 10:35:32 AM 36.0673 -89.1143 322° Northwest  Level FlightAware Approximate
Mon 10:36:32 AM 36.0916 -89.1377 322° Northwest  Level FlightAware Approximate
Mon 10:37:32 AM 36.1158 -89.1611 322° Northwest  Level FlightAware Approximate
Mon 10:38:32 AM 36.1401 -89.1846 322° Northwest  Level FlightAware Approximate
Mon 10:39:32 AM 36.1643 -89.2080 322° Northwest  Level FlightAware Approximate
Mon 10:40:32 AM 36.1886 -89.2315 322° Northwest  Level FlightAware Approximate
Mon 10:41:32 AM 36.2128 -89.2550 322° Northwest  Level FlightAware Approximate
Mon 10:42:32 AM 36.2371 -89.2785 322° Northwest  Level FlightAware Approximate
Mon 10:43:32 AM 36.2613 -89.3020 322° Northwest  Level FlightAware Approximate
Mon 10:44:32 AM 36.2854 -89.3256 322° Northwest  Level FlightAware Approximate
Mon 10:45:32 AM 36.3096 -89.3493 322° Northwest  Level FlightAware Approximate
Mon 10:46:32 AM 36.3337 -89.3730 322° Northwest  Level FlightAware Approximate
Mon 10:47:32 AM 36.3578 -89.3967 322° Northwest  Level FlightAware Approximate
Mon 10:48:32 AM 36.3819 -89.4204 322° Northwest  Level FlightAware Approximate
Mon 10:49:32 AM 36.4061 -89.4442 322° Northwest  Level FlightAware Approximate
Mon 10:50:32 AM 36.4302 -89.4679 322° Northwest  Level FlightAware Approximate
Mon 10:51:32 AM 36.4543 -89.4917 322° Northwest  Level FlightAware Approximate
Mon 10:52:32 AM 36.4784 -89.5154 322° Northwest  Level FlightAware Approximate
Mon 10:53:32 AM 36.5025 -89.5392 322° Northwest  Level FlightAware Approximate
Mon 10:54:32 AM 36.5266 -89.5630 322° Northwest  Level FlightAware Approximate
Mon 10:55:32 AM 36.5507 -89.5869 322° Northwest  Level FlightAware Approximate
Mon 10:56:32 AM 36.5747 -89.6107 322° Northwest  Level FlightAware Approximate
Mon 10:57:32 AM 36.5988 -89.6346 321° Northwest  Level FlightAware Approximate
Mon 10:58:32 AM 36.6229 -89.6584 321° Northwest  Level FlightAware Approximate
Mon 10:59:32 AM 36.6469 -89.6823 321° Northwest  Level FlightAware Approximate
Mon 11:00:32 AM 36.6710 -89.7062 321° Northwest  Level FlightAware Approximate
Mon 11:01:32 AM 36.6951 -89.7301 321° Northwest  Level FlightAware Approximate
Mon 11:02:32 AM 36.7191 -89.7540 321° Northwest  Level FlightAware Approximate
Mon 11:03:32 AM 36.7432 -89.7780 321° Northwest  Level FlightAware Approximate
Mon 11:04:32 AM 36.7672 -89.8019 321° Northwest  Level FlightAware Approximate
Mon 11:05:32 AM 36.7913 -89.8259 321° Northwest  Level FlightAware Approximate
Mon 11:06:32 AM 36.8153 -89.8499 321° Northwest  Level FlightAware Approximate
Mon 11:07:32 AM 36.8393 -89.8739 321° Northwest  Level FlightAware Approximate
Mon 11:08:32 AM 36.8633 -89.8979 321° Northwest  Level FlightAware Approximate
Mon 11:09:32 AM 36.8874 -89.9219 321° Northwest  Level FlightAware Approximate
Mon 11:10:32 AM 36.9114 -89.9460 321° Northwest  Level FlightAware Approximate
Mon 11:11:32 AM 36.9354 -89.9700 321° Northwest  Level FlightAware Approximate
Mon 11:12:32 AM 36.9594 -89.9941 321° Northwest  Level FlightAware Approximate
Mon 11:13:32 AM 36.9834 -90.0182 321° Northwest  Level FlightAware Approximate
Mon 11:14:32 AM 37.0074 -90.0423 321° Northwest  Level FlightAware Approximate
Mon 11:15:32 AM 37.0314 -90.0664 321° Northwest  Level FlightAware Approximate
Mon 11:16:32 AM 37.0554 -90.0906 321° Northwest  Level FlightAware Approximate
Mon 11:17:32 AM 37.0793 -90.1147 321° Northwest  Level FlightAware Approximate
Mon 11:18:32 AM 37.1033 -90.1389 321° Northwest  Level FlightAware Approximate
Mon 11:19:32 AM 37.1273 -90.1631 321° Northwest  Level FlightAware Approximate
Mon 11:20:32 AM 37.1513 -90.1873 321° Northwest  Level FlightAware Approximate
Mon 11:21:32 AM 37.1752 -90.2115 321° Northwest  Level FlightAware Approximate
Mon 11:22:32 AM 37.2003 -90.2369 321° Northwest  Level FlightAware Approximate
Mon 11:23:32 AM 37.2254 -90.2623 321° Northwest  Level FlightAware Approximate
Mon 11:24:32 AM 37.2505 -90.2877 321° Northwest  Level FlightAware Approximate
Mon 11:25:32 AM 37.2756 -90.3132 321° Northwest  Level FlightAware Approximate
Mon 11:26:32 AM 37.3007 -90.3386 321° Northwest  Level FlightAware Approximate
Mon 11:27:32 AM 37.3258 -90.3641 321° Northwest  Level FlightAware Approximate
Mon 11:28:32 AM 37.3510 -90.3898 321° Northwest  Level FlightAware Approximate
Mon 11:29:32 AM 37.3762 -90.4154 321° Northwest  Level FlightAware Approximate
Mon 11:30:32 AM 37.4014 -90.4411 321° Northwest  Level FlightAware Approximate
Mon 11:31:32 AM 37.4266 -90.4668 321° Northwest  Level FlightAware Approximate
Mon 11:32:32 AM 37.4523 -90.4930 321° Northwest  Level FlightAware Approximate
Mon 11:33:32 AM 37.4780 -90.5192 321° Northwest  Level FlightAware Approximate
Mon 11:34:32 AM 37.5036 -90.5454 321° Northwest  Level FlightAware Approximate
Mon 11:35:32 AM 37.5293 -90.5716 321° Northwest  Level FlightAware Approximate
Mon 11:36:32 AM 37.5549 -90.5979 321° Northwest  Level FlightAware Approximate
Mon 11:37:32 AM 37.5805 -90.6242 321° Northwest  Level FlightAware Approximate
Mon 11:38:32 AM 37.6062 -90.6505 321° Northwest  Level FlightAware Approximate
Mon 11:39:32 AM 37.6318 -90.6768 321° Northwest  Level FlightAware Approximate
Mon 11:40:32 AM 37.6574 -90.7031 321° Northwest  Level FlightAware Approximate
Mon 11:41:32 AM 37.6830 -90.7294 321° Northwest  Level FlightAware Approximate
Mon 11:42:32 AM 37.7087 -90.7557 321° Northwest  Level FlightAware Approximate
Mon 11:43:32 AM 37.7343 -90.7820 321° Northwest  Level FlightAware Approximate
Mon 11:44:32 AM 37.7600 -90.8083 321° Northwest  Level FlightAware Approximate
Mon 11:45:32 AM 37.7856 -90.8346 321° Northwest  Level FlightAware Approximate
Mon 11:46:32 AM 37.8112 -90.8610 321° Northwest  Level FlightAware Approximate
Mon 11:47:32 AM 37.8368 -90.8874 321° Northwest  Level FlightAware Approximate
Mon 11:48:32 AM 37.8625 -90.9138 321° Northwest  Level FlightAware Approximate
Mon 11:49:32 AM 37.8881 -90.9402 321° Northwest  Level FlightAware Approximate
Mon 11:50:32 AM 37.9134 -90.9664 321° Northwest  Level FlightAware Approximate
Mon 11:51:32 AM 37.9387 -90.9926 321° Northwest  Level FlightAware Approximate
Mon 11:52:32 AM 37.9641 -91.0188 321° Northwest  Level FlightAware Approximate
Mon 11:53:32 AM 37.9894 -91.0450 321° Northwest  Level FlightAware Approximate
Mon 11:54:32 AM 38.0149 -91.0714 321° Northwest  Level FlightAware Approximate
Mon 11:55:32 AM 38.0404 -91.0978 321° Northwest  Level FlightAware Approximate
Mon 11:56:32 AM 38.0659 -91.1243 321° Northwest  Level FlightAware Approximate
Mon 11:57:32 AM 38.0914 -91.1508 321° Northwest  Level FlightAware Approximate
Mon 11:58:32 AM 38.1168 -91.1773 321° Northwest  Level FlightAware Approximate
Mon 11:59:32 AM 38.1423 -91.2038 321° Northwest  Level FlightAware Approximate
Mon 12:00:32 PM 38.1678 -91.2304 321° Northwest  Level FlightAware Approximate
Mon 12:01:32 PM 38.1932 -91.2569 321° Northwest  Level FlightAware Approximate
Mon 12:02:32 PM 38.2187 -91.2835 321° Northwest  Level FlightAware Approximate
Mon 12:03:32 PM 38.2441 -91.3101 321° Northwest  Level FlightAware Approximate
Mon 12:04:32 PM 38.2696 -91.3367 321° Northwest  Level FlightAware Approximate
Mon 12:05:32 PM 38.2950 -91.3633 321° Northwest  Level FlightAware Approximate
Mon 12:06:32 PM 38.3205 -91.3900 320° Northwest  Level FlightAware Approximate
Mon 12:07:32 PM 38.3463 -91.4172 322° Northwest  Level FlightAware Approximate
Mon 12:08:32 PM 38.3723 -91.4435 322° Northwest  Level FlightAware Approximate
Mon 12:09:32 PM 38.3984 -91.4697 322° Northwest  Level FlightAware Approximate
Mon 12:10:32 PM 38.4244 -91.4960 322° Northwest  Level FlightAware Approximate
Mon 12:11:32 PM 38.4504 -91.5223 322° Northwest  Level FlightAware Approximate
Mon 12:12:32 PM 38.4765 -91.5486 322° Northwest  Level FlightAware Approximate
Mon 12:13:32 PM 38.5025 -91.5750 322° Northwest  Level FlightAware Approximate
Mon 12:14:32 PM 38.5285 -91.6013 322° Northwest  Level FlightAware Approximate
Mon 12:15:32 PM 38.5545 -91.6277 322° Northwest  Level FlightAware Approximate
Mon 12:16:32 PM 38.5808 -91.6544 322° Northwest  Level FlightAware Approximate
Mon 12:17:32 PM 38.6072 -91.6812 322° Northwest  Level FlightAware Approximate
Mon 12:18:32 PM 38.6335 -91.7080 322° Northwest  Level FlightAware Approximate
Mon 12:19:32 PM 38.6598 -91.7347 322° Northwest  Level FlightAware Approximate
Mon 12:20:32 PM 38.6861 -91.7616 321° Northwest  Level FlightAware Approximate
Mon 12:21:32 PM 38.7124 -91.7884 321° Northwest  Level FlightAware Approximate
Mon 12:22:32 PM 38.7388 -91.8152 321° Northwest  Level FlightAware Approximate
Mon 12:23:32 PM 38.7650 -91.8421 321° Northwest  Level FlightAware Approximate
Mon 12:24:32 PM 38.7913 -91.8690 321° Northwest  Level FlightAware Approximate
Mon 12:25:32 PM 38.8176 -91.8959 321° Northwest  Level FlightAware Approximate
Mon 12:26:32 PM 38.8439 -91.9228 321° Northwest  Level FlightAware Approximate
Mon 12:27:32 PM 38.8700 -91.9501 321° Northwest  Level FlightAware Approximate
Mon 12:28:32 PM 38.8960 -91.9774 321° Northwest  Level FlightAware Approximate
Mon 12:29:32 PM 38.9221 -92.0047 321° Northwest  Level FlightAware Approximate
Mon 12:30:32 PM 38.9483 -92.0322 321° Northwest  Level FlightAware Approximate
Mon 12:31:32 PM 38.9745 -92.0597 321° Northwest  Level FlightAware Approximate
Mon 12:32:32 PM 39.0007 -92.0873 321° Northwest  Level FlightAware Approximate
Mon 12:33:32 PM 39.0269 -92.1148 321° Northwest  Level FlightAware Approximate
Mon 12:34:32 PM 39.0531 -92.1424 321° Northwest  Level FlightAware Approximate
Mon 12:35:32 PM 39.0793 -92.1700 321° Northwest  Level FlightAware Approximate
Mon 12:36:32 PM 39.1054 -92.1976 321° Northwest  Level FlightAware Approximate
Mon 12:37:32 PM 39.1316 -92.2253 321° Northwest  Level FlightAware Approximate
Mon 12:38:32 PM 39.1577 -92.2529 321° Northwest  Level FlightAware Approximate
Mon 12:39:32 PM 39.1839 -92.2806 321° Northwest  Level FlightAware Approximate
Mon 12:40:32 PM 39.2100 -92.3083 321° Northwest  Level FlightAware Approximate
Mon 12:41:32 PM 39.2362 -92.3360 321° Northwest  Level FlightAware Approximate
Mon 12:42:32 PM 39.2623 -92.3637 321° Northwest  Level FlightAware Approximate
Mon 12:43:32 PM 39.2884 -92.3915 321° Northwest  Level FlightAware Approximate
Mon 12:44:32 PM 39.3145 -92.4193 321° Northwest  Level FlightAware Approximate
Mon 12:45:32 PM 39.3410 -92.4474 321° Northwest  Level FlightAware Approximate
Mon 12:46:32 PM 39.3674 -92.4756 320° Northwest  Level FlightAware Approximate
Mon 12:47:32 PM 39.3938 -92.5038 320° Northwest  Level FlightAware Approximate
Mon 12:48:32 PM 39.4202 -92.5320 320° Northwest  Level FlightAware Approximate
Mon 12:49:32 PM 39.4467 -92.5602 320° Northwest  Level FlightAware Approximate
Mon 12:50:32 PM 39.4731 -92.5885 320° Northwest  Level FlightAware Approximate
Mon 12:51:32 PM 39.4995 -92.6168 320° Northwest  Level FlightAware Approximate
Mon 12:52:32 PM 39.5258 -92.6451 320° Northwest  Level FlightAware Approximate
Mon 12:53:32 PM 39.5521 -92.6736 320° Northwest  Level FlightAware Approximate
Mon 12:54:32 PM 39.5784 -92.7021 320° Northwest  Level FlightAware Approximate
Mon 12:55:32 PM 39.6046 -92.7307 320° Northwest  Level FlightAware Approximate
Mon 12:56:32 PM 39.6309 -92.7592 320° Northwest  Level FlightAware Approximate
Mon 12:57:32 PM 39.6571 -92.7878 320° Northwest  Level FlightAware Approximate
Mon 12:58:32 PM 39.6833 -92.8164 320° Northwest  Level FlightAware Approximate
Mon 12:59:32 PM 39.7095 -92.8451 320° Northwest  Level FlightAware Approximate
Mon 01:00:32 PM 39.7358 -92.8737 320° Northwest  Level FlightAware Approximate
Mon 01:01:32 PM 39.7620 -92.9024 320° Northwest  Level FlightAware Approximate
Mon 01:02:32 PM 39.7882 -92.9311 320° Northwest  Level FlightAware Approximate
Mon 01:03:32 PM 39.8144 -92.9598 320° Northwest  Level FlightAware Approximate
Mon 01:04:32 PM 39.8405 -92.9886 320° Northwest  Level FlightAware Approximate
Mon 01:05:32 PM 39.8667 -93.0173 320° Northwest  Level FlightAware Approximate
Mon 01:06:32 PM 39.8929 -93.0461 320° Northwest  Level FlightAware Approximate
Mon 01:07:32 PM 39.9191 -93.0750 320° Northwest  Level FlightAware Approximate
Mon 01:08:32 PM 39.9452 -93.1038 320° Northwest  Level FlightAware Approximate
Mon 01:09:32 PM 39.9714 -93.1326 319° Northwest  Level FlightAware Approximate
Mon 01:10:32 PM 39.9974 -93.1617 319° Northwest  Level FlightAware Approximate
Mon 01:11:32 PM 40.0234 -93.1907 319° Northwest  Level FlightAware Approximate
Mon 01:12:32 PM 40.0502 -93.2207 319° Northwest  Level FlightAware Approximate
Mon 01:13:32 PM 40.0770 -93.2507 319° Northwest  Level FlightAware Approximate
Mon 01:14:32 PM 40.1038 -93.2807 319° Northwest  Level FlightAware Approximate
Mon 01:15:32 PM 40.1306 -93.3107 319° Northwest  Level FlightAware Approximate
Mon 01:16:32 PM 40.1573 -93.3407 319° Northwest  Level FlightAware Approximate
Mon 01:17:32 PM 40.1841 -93.3708 319° Northwest  Level FlightAware Approximate
Mon 01:18:32 PM 40.2108 -93.4009 319° Northwest  Level FlightAware Approximate
Mon 01:19:32 PM 40.2376 -93.4310 319° Northwest  Level FlightAware Approximate
Mon 01:20:32 PM 40.2643 -93.4611 319° Northwest  Level FlightAware Approximate
Mon 01:21:32 PM 40.2910 -93.4913 319° Northwest  Level FlightAware Approximate
Mon 01:22:32 PM 40.3177 -93.5214 319° Northwest  Level FlightAware Approximate
Mon 01:23:32 PM 40.3444 -93.5517 319° Northwest  Level FlightAware Approximate
Mon 01:24:32 PM 40.3711 -93.5819 319° Northwest  Level FlightAware Approximate
Mon 01:25:32 PM 40.3978 -93.6121 319° Northwest  Level FlightAware Approximate
Mon 01:26:32 PM 40.4245 -93.6424 319° Northwest  Level FlightAware Approximate
Mon 01:27:32 PM 40.4512 -93.6727 319° Northwest  Level FlightAware Approximate
Mon 01:28:32 PM 40.4778 -93.7030 319° Northwest  Level FlightAware Approximate
Mon 01:29:32 PM 40.5045 -93.7334 319° Northwest  Level FlightAware Approximate
Mon 01:30:32 PM 40.5312 -93.7638 319° Northwest  Level FlightAware Approximate
Mon 01:31:32 PM 40.5578 -93.7942 319° Northwest  Level FlightAware Approximate
Mon 01:32:32 PM 40.5844 -93.8246 319° Northwest  Level FlightAware Approximate
Mon 01:33:32 PM 40.6110 -93.8550 319° Northwest  Level FlightAware Approximate
Mon 01:34:32 PM 40.6377 -93.8855 319° Northwest  Level FlightAware Approximate
Mon 01:35:32 PM 40.6642 -93.9162 319° Northwest  Level FlightAware Approximate
Mon 01:36:32 PM 40.6906 -93.9469 319° Northwest  Level FlightAware Approximate
Mon 01:37:32 PM 40.7171 -93.9776 319° Northwest  Level FlightAware Approximate
Mon 01:38:32 PM 40.7436 -94.0084 319° Northwest  Level FlightAware Approximate
Mon 01:39:32 PM 40.7700 -94.0391 319° Northwest  Level FlightAware Approximate
Mon 01:40:32 PM 40.7965 -94.0699 319° Northwest  Level FlightAware Approximate
Mon 01:41:32 PM 40.8229 -94.1008 319° Northwest  Level FlightAware Approximate
Mon 01:42:32 PM 40.8493 -94.1316 319° Northwest  Level FlightAware Approximate
Mon 01:43:32 PM 40.8757 -94.1625 319° Northwest  Level FlightAware Approximate
Mon 01:44:32 PM 40.9021 -94.1934 318° Northwest  Level FlightAware Approximate
Mon 01:45:32 PM 40.9286 -94.2243 318° Northwest  Level FlightAware Approximate
Mon 01:46:32 PM 40.9549 -94.2553 318° Northwest  Level FlightAware Approximate
Mon 01:47:32 PM 40.9813 -94.2863 318° Northwest  Level FlightAware Approximate
Mon 01:48:32 PM 41.0077 -94.3173 318° Northwest  Level FlightAware Approximate
Mon 01:49:32 PM 41.0348 -94.3491 318° Northwest  Level FlightAware Approximate
Mon 01:50:32 PM 41.0618 -94.3810 318° Northwest  Level FlightAware Approximate
Mon 01:51:32 PM 41.0881 -94.4120 318° Northwest  Level FlightAware Approximate
Mon 01:52:32 PM 41.1144 -94.4431 318° Northwest  Level FlightAware Approximate
Mon 01:53:32 PM 41.1415 -94.4751 318° Northwest  Level FlightAware Approximate
Mon 01:54:32 PM 41.1686 -94.5071 318° Northwest  Level FlightAware Approximate
Mon 01:55:32 PM 41.1957 -94.5392 318° Northwest  Level FlightAware Approximate
Mon 01:56:32 PM 41.2227 -94.5713 318° Northwest  Level FlightAware Approximate
Mon 01:57:32 PM 41.2497 -94.6034 318° Northwest  Level FlightAware Approximate
Mon 01:58:32 PM 41.2768 -94.6355 323° Northwest  Level FlightAware Approximate
Mon 01:59:32 PM 41.3019 -94.6609 323° Northwest  Level FlightAware Approximate
Mon 02:00:32 PM 41.3271 -94.6863 323° Northwest  Level FlightAware Approximate
Mon 02:01:32 PM 41.3523 -94.7117 323° Northwest  Level FlightAware Approximate
Mon 02:02:32 PM 41.3811 -94.7401 323° Northwest  Level FlightAware Approximate
Mon 02:03:32 PM 41.4098 -94.7686 323° Northwest  Level FlightAware Approximate
Mon 02:04:32 PM 41.4386 -94.7971 323° Northwest  Level FlightAware Approximate
Mon 02:05:32 PM 41.4674 -94.8256 323° Northwest  Level FlightAware Approximate
Mon 02:06:32 PM 41.4961 -94.8541 323° Northwest  Level FlightAware Approximate
Mon 02:07:32 PM 41.5249 -94.8827 323° Northwest  Level FlightAware Approximate
Mon 02:08:32 PM 41.5536 -94.9113 323° Northwest  Level FlightAware Approximate
Mon 02:09:32 PM 41.5824 -94.9399 323° Northwest  Level FlightAware Approximate
Mon 02:10:32 PM 41.6111 -94.9686 323° Northwest  Level FlightAware Approximate
Mon 02:11:32 PM 41.6398 -94.9972 323° Northwest  Level FlightAware Approximate
Mon 02:12:32 PM 41.6685 -95.0259 323° Northwest  Level FlightAware Approximate
Mon 02:13:32 PM 41.6972 -95.0546 323° Northwest  Level FlightAware Approximate
Mon 02:14:32 PM 41.7259 -95.0834 323° Northwest  Level FlightAware Approximate
Mon 02:15:32 PM 41.7546 -95.1121 323° Northwest  Level FlightAware Approximate
Mon 02:16:32 PM 41.7833 -95.1409 323° Northwest  Level FlightAware Approximate
Mon 02:17:32 PM 41.8120 -95.1697 323° Northwest  Level FlightAware Approximate
Mon 02:18:32 PM 41.8406 -95.1986 323° Northwest  Level FlightAware Approximate
Mon 02:19:32 PM 41.8693 -95.2274 323° Northwest  Level FlightAware Approximate
Mon 02:20:32 PM 41.8980 -95.2563 323° Northwest  Level FlightAware Approximate
Mon 02:21:32 PM 41.9266 -95.2853 323° Northwest  Level FlightAware Approximate
Mon 02:22:32 PM 41.9552 -95.3142 323° Northwest  Level FlightAware Approximate
Mon 02:23:32 PM 41.9839 -95.3432 316° Northwest  Level FlightAware Approximate
Mon 02:24:32 PM 42.0097 -95.3764 324° Northwest  Level FlightAware Approximate
Mon 02:25:32 PM 42.0388 -95.4045 323° Northwest  Level FlightAware Approximate
Mon 02:26:32 PM 42.0676 -95.4332 323° Northwest  Level FlightAware Approximate
Mon 02:27:32 PM 42.0964 -95.4620 323° Northwest  Level FlightAware Approximate
Mon 02:28:32 PM 42.1251 -95.4908 323° Northwest  Level FlightAware Approximate
Mon 02:29:32 PM 42.1539 -95.5196 323° Northwest  Level FlightAware Approximate
Mon 02:30:32 PM 42.1827 -95.5484 323° Northwest  Level FlightAware Approximate
Mon 02:31:32 PM 42.2114 -95.5772 323° Northwest  Level FlightAware Approximate
Mon 02:32:32 PM 42.2402 -95.6061 323° Northwest  Level FlightAware Approximate
Mon 02:33:32 PM 42.2690 -95.6350 323° Northwest  Level FlightAware Approximate
Mon 02:34:32 PM 42.2977 -95.6639 323° Northwest  Level FlightAware Approximate
Mon 02:35:32 PM 42.3264 -95.6929 323° Northwest  Level FlightAware Approximate
Mon 02:36:32 PM 42.3550 -95.7222 321° Northwest  Level FlightAware Approximate
Mon 02:37:32 PM 42.3827 -95.7529 321° Northwest  Level Estimated
Mon 02:38:32 PM 42.7667 -96.1833 321° Northwest  Level FlightAware Approximate

Login

Don't have an account? Register now (free) for customized features, flight alerts, and more!